sensor_id;sensor_type;location;lat;lon;timestamp;P1;durP1;ratioP1;P2;durP2;ratioP2
66893;SDS011;53801;55.786;49.142;2023-05-21T00:00:42;4.80;;;1.70;;
66893;SDS011;53801;55.786;49.142;2023-05-21T00:03:10;5.93;;;2.05;;
66893;SDS011;53801;55.786;49.142;2023-05-21T00:05:41;6.43;;;2.10;;
66893;SDS011;53801;55.786;49.142;2023-05-21T00:08:07;6.53;;;1.90;;
66893;SDS011;53801;55.786;49.142;2023-05-21T00:10:32;3.87;;;1.80;;
66893;SDS011;53801;55.786;49.142;2023-05-21T00:12:58;4.45;;;1.70;;
66893;SDS011;53801;55.786;49.142;2023-05-21T00:15:23;5.63;;;1.83;;
66893;SDS011;53801;55.786;49.142;2023-05-21T00:17:49;6.93;;;2.20;;
66893;SDS011;53801;55.786;49.142;2023-05-21T00:20:14;6.03;;;2.03;;
66893;SDS011;53801;55.786;49.142;2023-05-21T00:22:40;5.05;;;1.90;;
66893;SDS011;53801;55.786;49.142;2023-05-21T00:25:09;6.65;;;1.70;;
66893;SDS011;53801;55.786;49.142;2023-05-21T00:27:35;4.63;;;2.00;;
66893;SDS011;53801;55.786;49.142;2023-05-21T00:30:00;3.63;;;2.03;;
66893;SDS011;53801;55.786;49.142;2023-05-21T00:32:25;4.20;;;2.20;;
66893;SDS011;53801;55.786;49.142;2023-05-21T00:34:51;6.53;;;2.60;;
66893;SDS011;53801;55.786;49.142;2023-05-21T00:37:16;3.70;;;1.67;;
66893;SDS011;53801;55.786;49.142;2023-05-21T00:39:42;5.30;;;1.88;;
66893;SDS011;53801;55.786;49.142;2023-05-21T00:42:07;4.93;;;2.13;;
66893;SDS011;53801;55.786;49.142;2023-05-21T00:44:33;6.17;;;2.07;;
66893;SDS011;53801;55.786;49.142;2023-05-21T00:47:02;5.97;;;1.90;;
66893;SDS011;53801;55.786;49.142;2023-05-21T00:49:28;6.40;;;2.05;;
66893;SDS011;53801;55.786;49.142;2023-05-21T00:51:54;5.37;;;2.20;;
66893;SDS011;53801;55.786;49.142;2023-05-21T00:54:20;3.55;;;1.67;;
66893;SDS011;53801;55.786;49.142;2023-05-21T00:56:46;4.53;;;2.10;;
66893;SDS011;53801;55.786;49.142;2023-05-21T00:59:11;3.83;;;1.50;;
66893;SDS011;53801;55.786;49.142;2023-05-21T01:01:37;3.13;;;1.60;;
66893;SDS011;53801;55.786;49.142;2023-05-21T01:04:03;2.40;;;1.50;;
66893;SDS011;53801;55.786;49.142;2023-05-21T01:06:28;2.43;;;1.37;;
66893;SDS011;53801;55.786;49.142;2023-05-21T01:08:54;4.97;;;1.60;;
66893;SDS011;53801;55.786;49.142;2023-05-21T01:11:20;3.65;;;1.40;;
66893;SDS011;53801;55.786;49.142;2023-05-21T01:13:48;3.33;;;1.08;;
66893;SDS011;53801;55.786;49.142;2023-05-21T01:16:14;3.75;;;1.40;;
66893;SDS011;53801;55.786;49.142;2023-05-21T01:18:41;2.63;;;1.30;;
66893;SDS011;53801;55.786;49.142;2023-05-21T01:21:09;2.40;;;1.10;;
66893;SDS011;53801;55.786;49.142;2023-05-21T01:23:34;3.08;;;1.10;;
66893;SDS011;53801;55.786;49.142;2023-05-21T01:26:00;2.03;;;1.30;;
66893;SDS011;53801;55.786;49.142;2023-05-21T01:28:25;4.03;;;1.00;;
66893;SDS011;53801;55.786;49.142;2023-05-21T01:30:51;3.60;;;1.13;;
66893;SDS011;53801;55.786;49.142;2023-05-21T01:33:27;2.67;;;1.10;;
66893;SDS011;53801;55.786;49.142;2023-05-21T01:35:59;2.57;;;1.40;;
66893;SDS011;53801;55.786;49.142;2023-05-21T01:38:28;3.00;;;1.45;;
66893;SDS011;53801;55.786;49.142;2023-05-21T01:41:01;3.92;;;1.30;;
66893;SDS011;53801;55.786;49.142;2023-05-21T01:43:31;2.28;;;1.00;;
66893;SDS011;53801;55.786;49.142;2023-05-21T01:45:58;2.38;;;1.15;;
66893;SDS011;53801;55.786;49.142;2023-05-21T01:48:27;1.87;;;1.30;;
66893;SDS011;53801;55.786;49.142;2023-05-21T01:50:54;2.55;;;1.20;;
66893;SDS011;53801;55.786;49.142;2023-05-21T01:53:20;3.20;;;1.15;;
66893;SDS011;53801;55.786;49.142;2023-05-21T01:55:45;3.73;;;1.27;;
66893;SDS011;53801;55.786;49.142;2023-05-21T01:58:11;1.88;;;1.08;;
66893;SDS011;53801;55.786;49.142;2023-05-21T02:00:36;2.20;;;1.33;;
66893;SDS011;53801;55.786;49.142;2023-05-21T02:03:04;2.80;;;1.08;;
66893;SDS011;53801;55.786;49.142;2023-05-21T02:05:29;3.00;;;1.03;;
66893;SDS011;53801;55.786;49.142;2023-05-21T02:07:55;3.60;;;1.33;;
66893;SDS011;53801;55.786;49.142;2023-05-21T02:10:21;3.28;;;1.10;;
66893;SDS011;53801;55.786;49.142;2023-05-21T02:12:46;2.10;;;1.10;;
66893;SDS011;53801;55.786;49.142;2023-05-21T02:15:11;6.13;;;1.50;;
66893;SDS011;53801;55.786;49.142;2023-05-21T02:17:38;2.77;;;1.03;;
66893;SDS011;53801;55.786;49.142;2023-05-21T02:20:05;2.45;;;1.15;;
66893;SDS011;53801;55.786;49.142;2023-05-21T02:22:40;3.33;;;1.65;;
66893;SDS011;53801;55.786;49.142;2023-05-21T02:25:06;2.17;;;1.20;;
66893;SDS011;53801;55.786;49.142;2023-05-21T02:27:32;3.38;;;1.20;;
66893;SDS011;53801;55.786;49.142;2023-05-21T02:29:59;4.13;;;1.17;;
66893;SDS011;53801;55.786;49.142;2023-05-21T02:32:25;3.38;;;1.13;;
66893;SDS011;53801;55.786;49.142;2023-05-21T02:34:50;3.80;;;1.40;;
66893;SDS011;53801;55.786;49.142;2023-05-21T02:37:17;2.75;;;1.30;;
66893;SDS011;53801;55.786;49.142;2023-05-21T02:39:45;3.53;;;1.33;;
66893;SDS011;53801;55.786;49.142;2023-05-21T02:42:10;4.07;;;1.20;;
66893;SDS011;53801;55.786;49.142;2023-05-21T02:44:36;2.10;;;1.23;;
66893;SDS011;53801;55.786;49.142;2023-05-21T02:47:01;1.80;;;1.05;;
66893;SDS011;53801;55.786;49.142;2023-05-21T02:49:27;3.00;;;1.50;;
66893;SDS011;53801;55.786;49.142;2023-05-21T02:51:52;2.13;;;1.07;;
66893;SDS011;53801;55.786;49.142;2023-05-21T02:54:18;2.13;;;1.00;;
66893;SDS011;53801;55.786;49.142;2023-05-21T02:56:43;2.25;;;1.20;;
66893;SDS011;53801;55.786;49.142;2023-05-21T02:59:08;5.53;;;1.40;;
66893;SDS011;53801;55.786;49.142;2023-05-21T03:01:34;4.10;;;1.27;;
66893;SDS011;53801;55.786;49.142;2023-05-21T03:03:59;2.90;;;1.10;;
66893;SDS011;53801;55.786;49.142;2023-05-21T03:06:25;3.00;;;1.30;;
66893;SDS011;53801;55.786;49.142;2023-05-21T03:08:50;2.78;;;1.05;;
66893;SDS011;53801;55.786;49.142;2023-05-21T03:11:17;4.80;;;1.70;;
66893;SDS011;53801;55.786;49.142;2023-05-21T03:13:43;3.65;;;1.40;;
66893;SDS011;53801;55.786;49.142;2023-05-21T03:16:08;2.60;;;1.20;;
66893;SDS011;53801;55.786;49.142;2023-05-21T03:18:34;2.90;;;1.20;;
66893;SDS011;53801;55.786;49.142;2023-05-21T03:20:59;2.90;;;1.20;;
66893;SDS011;53801;55.786;49.142;2023-05-21T03:23:25;2.15;;;1.27;;
66893;SDS011;53801;55.786;49.142;2023-05-21T03:25:51;2.17;;;1.45;;
66893;SDS011;53801;55.786;49.142;2023-05-21T03:28:16;2.47;;;1.40;;
66893;SDS011;53801;55.786;49.142;2023-05-21T03:30:42;2.30;;;1.20;;
66893;SDS011;53801;55.786;49.142;2023-05-21T03:33:11;2.65;;;1.17;;
66893;SDS011;53801;55.786;49.142;2023-05-21T03:35:36;2.70;;;1.35;;
66893;SDS011;53801;55.786;49.142;2023-05-21T03:38:01;4.03;;;1.20;;
66893;SDS011;53801;55.786;49.142;2023-05-21T03:40:29;2.80;;;1.07;;
66893;SDS011;53801;55.786;49.142;2023-05-21T03:42:54;3.35;;;1.25;;
66893;SDS011;53801;55.786;49.142;2023-05-21T03:45:20;2.30;;;1.20;;
66893;SDS011;53801;55.786;49.142;2023-05-21T03:47:45;2.17;;;1.13;;
66893;SDS011;53801;55.786;49.142;2023-05-21T03:50:12;1.95;;;1.15;;
66893;SDS011;53801;55.786;49.142;2023-05-21T03:52:38;2.87;;;1.50;;
66893;SDS011;53801;55.786;49.142;2023-05-21T03:55:03;2.45;;;1.25;;
66893;SDS011;53801;55.786;49.142;2023-05-21T03:57:29;3.43;;;1.40;;
66893;SDS011;53801;55.786;49.142;2023-05-21T03:59:54;2.67;;;1.47;;
66893;SDS011;53801;55.786;49.142;2023-05-21T04:02:24;2.85;;;1.35;;
66893;SDS011;53801;55.786;49.142;2023-05-21T04:04:49;3.08;;;1.52;;
66893;SDS011;53801;55.786;49.142;2023-05-21T04:07:15;1.73;;;1.33;;
66893;SDS011;53801;55.786;49.142;2023-05-21T04:09:55;3.60;;;1.33;;
66893;SDS011;53801;55.786;49.142;2023-05-21T04:12:20;2.60;;;1.38;;
66893;SDS011;53801;55.786;49.142;2023-05-21T04:14:46;2.60;;;1.67;;
66893;SDS011;53801;55.786;49.142;2023-05-21T04:17:12;2.88;;;1.50;;
66893;SDS011;53801;55.786;49.142;2023-05-21T04:19:37;3.03;;;1.93;;
66893;SDS011;53801;55.786;49.142;2023-05-21T04:22:03;3.10;;;2.07;;
66893;SDS011;53801;55.786;49.142;2023-05-21T04:24:28;3.38;;;2.15;;
66893;SDS011;53801;55.786;49.142;2023-05-21T04:26:54;9.67;;;3.07;;
66893;SDS011;53801;55.786;49.142;2023-05-21T04:29:20;5.35;;;2.30;;
66893;SDS011;53801;55.786;49.142;2023-05-21T04:31:46;3.60;;;2.87;;
66893;SDS011;53801;55.786;49.142;2023-05-21T04:34:12;3.20;;;2.78;;
66893;SDS011;53801;55.786;49.142;2023-05-21T04:36:37;5.87;;;3.33;;
66893;SDS011;53801;55.786;49.142;2023-05-21T04:39:03;5.45;;;3.13;;
66893;SDS011;53801;55.786;49.142;2023-05-21T04:41:30;6.13;;;3.38;;
66893;SDS011;53801;55.786;49.142;2023-05-21T04:43:55;5.60;;;3.77;;
66893;SDS011;53801;55.786;49.142;2023-05-21T04:46:21;4.70;;;3.57;;
66893;SDS011;53801;55.786;49.142;2023-05-21T04:48:52;4.30;;;3.90;;
66893;SDS011;53801;55.786;49.142;2023-05-21T04:51:20;6.05;;;4.10;;
66893;SDS011;53801;55.786;49.142;2023-05-21T04:53:46;4.70;;;4.30;;
66893;SDS011;53801;55.786;49.142;2023-05-21T04:56:14;6.20;;;4.10;;
66893;SDS011;53801;55.786;49.142;2023-05-21T04:58:40;4.70;;;4.30;;
66893;SDS011;53801;55.786;49.142;2023-05-21T05:01:05;5.20;;;4.70;;
66893;SDS011;53801;55.786;49.142;2023-05-21T05:03:33;5.75;;;4.63;;
66893;SDS011;53801;55.786;49.142;2023-05-21T05:05:58;5.60;;;4.95;;
66893;SDS011;53801;55.786;49.142;2023-05-21T05:08:24;5.83;;;4.90;;
66893;SDS011;53801;55.786;49.142;2023-05-21T05:10:49;7.93;;;5.03;;
66893;SDS011;53801;55.786;49.142;2023-05-21T05:13:15;5.13;;;4.63;;
66893;SDS011;53801;55.786;49.142;2023-05-21T05:15:41;6.00;;;5.25;;
66893;SDS011;53801;55.786;49.142;2023-05-21T05:18:06;6.77;;;5.70;;
66893;SDS011;53801;55.786;49.142;2023-05-21T05:20:35;6.00;;;5.40;;
66893;SDS011;53801;55.786;49.142;2023-05-21T05:23:01;5.77;;;5.17;;
66893;SDS011;53801;55.786;49.142;2023-05-21T05:25:26;7.57;;;6.50;;
66893;SDS011;53801;55.786;49.142;2023-05-21T05:27:52;6.67;;;5.83;;
66893;SDS011;53801;55.786;49.142;2023-05-21T05:30:17;5.93;;;5.18;;
66893;SDS011;53801;55.786;49.142;2023-05-21T05:32:43;6.15;;;5.57;;
66893;SDS011;53801;55.786;49.142;2023-05-21T05:35:08;9.00;;;6.43;;
66893;SDS011;53801;55.786;49.142;2023-05-21T05:37:34;6.73;;;5.60;;
66893;SDS011;53801;55.786;49.142;2023-05-21T05:39:59;6.13;;;4.87;;
66893;SDS011;53801;55.786;49.142;2023-05-21T05:42:24;6.30;;;5.70;;
66893;SDS011;53801;55.786;49.142;2023-05-21T05:44:50;6.83;;;6.23;;
66893;SDS011;53801;55.786;49.142;2023-05-21T05:47:15;5.93;;;5.37;;
66893;SDS011;53801;55.786;49.142;2023-05-21T05:49:41;6.88;;;6.20;;
66893;SDS011;53801;55.786;49.142;2023-05-21T05:52:06;6.33;;;5.73;;
66893;SDS011;53801;55.786;49.142;2023-05-21T05:54:32;6.60;;;5.97;;
66893;SDS011;53801;55.786;49.142;2023-05-21T05:56:58;7.93;;;6.47;;
66893;SDS011;53801;55.786;49.142;2023-05-21T05:59:23;7.73;;;6.90;;
66893;SDS011;53801;55.786;49.142;2023-05-21T06:01:49;7.68;;;6.05;;
66893;SDS011;53801;55.786;49.142;2023-05-21T06:04:14;9.05;;;7.05;;
66893;SDS011;53801;55.786;49.142;2023-05-21T06:06:40;10.67;;;6.77;;
66893;SDS011;53801;55.786;49.142;2023-05-21T06:09:06;6.18;;;5.57;;
66893;SDS011;53801;55.786;49.142;2023-05-21T06:11:31;8.50;;;7.23;;
66893;SDS011;53801;55.786;49.142;2023-05-21T06:13:56;7.30;;;6.60;;
66893;SDS011;53801;55.786;49.142;2023-05-21T06:16:24;7.40;;;6.80;;
66893;SDS011;53801;55.786;49.142;2023-05-21T06:18:50;6.97;;;6.10;;
66893;SDS011;53801;55.786;49.142;2023-05-21T06:21:15;7.83;;;6.27;;
66893;SDS011;53801;55.786;49.142;2023-05-21T06:23:41;9.15;;;6.00;;
66893;SDS011;53801;55.786;49.142;2023-05-21T06:26:06;9.13;;;7.07;;
66893;SDS011;53801;55.786;49.142;2023-05-21T06:28:32;7.70;;;7.07;;
66893;SDS011;53801;55.786;49.142;2023-05-21T06:30:57;7.33;;;6.67;;
66893;SDS011;53801;55.786;49.142;2023-05-21T06:33:22;8.23;;;7.23;;
66893;SDS011;53801;55.786;49.142;2023-05-21T06:35:48;9.80;;;6.05;;
66893;SDS011;53801;55.786;49.142;2023-05-21T06:38:13;7.97;;;7.23;;
66893;SDS011;53801;55.786;49.142;2023-05-21T06:40:39;7.87;;;7.27;;
66893;SDS011;53801;55.786;49.142;2023-05-21T06:43:04;9.67;;;7.63;;
66893;SDS011;53801;55.786;49.142;2023-05-21T06:45:30;6.50;;;5.90;;
66893;SDS011;53801;55.786;49.142;2023-05-21T06:47:55;9.50;;;6.23;;
66893;SDS011;53801;55.786;49.142;2023-05-21T06:50:20;8.53;;;6.80;;
66893;SDS011;53801;55.786;49.142;2023-05-21T06:52:46;7.83;;;7.03;;
66893;SDS011;53801;55.786;49.142;2023-05-21T06:55:11;9.07;;;7.63;;
66893;SDS011;53801;55.786;49.142;2023-05-21T06:57:37;9.67;;;8.20;;
66893;SDS011;53801;55.786;49.142;2023-05-21T07:00:03;13.03;;;7.37;;
66893;SDS011;53801;55.786;49.142;2023-05-21T07:02:29;9.15;;;6.60;;
66893;SDS011;53801;55.786;49.142;2023-05-21T07:04:55;11.70;;;7.83;;
66893;SDS011;53801;55.786;49.142;2023-05-21T07:07:21;10.32;;;6.55;;
66893;SDS011;53801;55.786;49.142;2023-05-21T07:09:46;8.07;;;6.37;;
66893;SDS011;53801;55.786;49.142;2023-05-21T07:12:11;10.43;;;7.23;;
66893;SDS011;53801;55.786;49.142;2023-05-21T07:14:37;7.13;;;6.43;;
66893;SDS011;53801;55.786;49.142;2023-05-21T07:17:02;8.10;;;7.30;;
66893;SDS011;53801;55.786;49.142;2023-05-21T07:19:28;9.23;;;7.67;;
66893;SDS011;53801;55.786;49.142;2023-05-21T07:21:53;8.10;;;7.30;;
66893;SDS011;53801;55.786;49.142;2023-05-21T07:24:19;10.90;;;7.50;;
66893;SDS011;53801;55.786;49.142;2023-05-21T07:26:45;7.57;;;6.88;;
66893;SDS011;53801;55.786;49.142;2023-05-21T07:29:10;8.50;;;6.87;;
66893;SDS011;53801;55.786;49.142;2023-05-21T07:31:36;6.90;;;6.30;;
66893;SDS011;53801;55.786;49.142;2023-05-21T07:34:01;10.40;;;8.20;;
66893;SDS011;53801;55.786;49.142;2023-05-21T07:36:27;8.10;;;7.30;;
66893;SDS011;53801;55.786;49.142;2023-05-21T07:38:52;10.00;;;8.20;;
66893;SDS011;53801;55.786;49.142;2023-05-21T07:41:18;8.03;;;7.03;;
66893;SDS011;53801;55.786;49.142;2023-05-21T07:43:43;7.43;;;6.83;;
66893;SDS011;53801;55.786;49.142;2023-05-21T07:46:09;7.35;;;6.68;;
66893;SDS011;53801;55.786;49.142;2023-05-21T07:48:34;23.03;;;10.60;;
66893;SDS011;53801;55.786;49.142;2023-05-21T07:51:00;12.60;;;7.03;;
66893;SDS011;53801;55.786;49.142;2023-05-21T07:53:25;7.88;;;6.38;;
66893;SDS011;53801;55.786;49.142;2023-05-21T07:55:51;8.17;;;7.37;;
66893;SDS011;53801;55.786;49.142;2023-05-21T07:58:16;8.40;;;6.73;;
66893;SDS011;53801;55.786;49.142;2023-05-21T08:00:46;7.05;;;6.07;;
66893;SDS011;53801;55.786;49.142;2023-05-21T08:03:15;8.03;;;7.33;;
66893;SDS011;53801;55.786;49.142;2023-05-21T08:05:41;7.95;;;6.18;;
66893;SDS011;53801;55.786;49.142;2023-05-21T08:08:09;8.07;;;7.32;;
66893;SDS011;53801;55.786;49.142;2023-05-21T08:10:37;9.90;;;7.53;;
66893;SDS011;53801;55.786;49.142;2023-05-21T08:13:03;9.02;;;6.38;;
66893;SDS011;53801;55.786;49.142;2023-05-21T08:15:29;7.83;;;7.03;;
66893;SDS011;53801;55.786;49.142;2023-05-21T08:17:54;8.57;;;7.28;;
66893;SDS011;53801;55.786;49.142;2023-05-21T08:20:20;13.87;;;7.00;;
66893;SDS011;53801;55.786;49.142;2023-05-21T08:22:45;8.37;;;6.37;;
66893;SDS011;53801;55.786;49.142;2023-05-21T08:25:12;7.72;;;5.13;;
66893;SDS011;53801;55.786;49.142;2023-05-21T08:27:41;5.93;;;5.33;;
66893;SDS011;53801;55.786;49.142;2023-05-21T08:30:07;8.38;;;4.35;;
66893;SDS011;53801;55.786;49.142;2023-05-21T08:32:34;7.53;;;3.83;;
66893;SDS011;53801;55.786;49.142;2023-05-21T08:37:49;8.73;;;6.10;;
66893;SDS011;53801;55.786;49.142;2023-05-21T08:43:01;7.17;;;4.63;;
66893;SDS011;53801;55.786;49.142;2023-05-21T08:45:32;11.10;;;6.25;;
66893;SDS011;53801;55.786;49.142;2023-05-21T08:48:01;8.25;;;4.72;;
66893;SDS011;53801;55.786;49.142;2023-05-21T08:50:27;7.60;;;6.93;;
66893;SDS011;53801;55.786;49.142;2023-05-21T08:52:52;10.48;;;6.63;;
66893;SDS011;53801;55.786;49.142;2023-05-21T08:55:27;7.63;;;6.03;;
66893;SDS011;53801;55.786;49.142;2023-05-21T08:57:55;9.73;;;6.30;;
66893;SDS011;53801;55.786;49.142;2023-05-21T09:00:21;5.70;;;5.20;;
66893;SDS011;53801;55.786;49.142;2023-05-21T09:02:47;16.17;;;7.17;;
66893;SDS011;53801;55.786;49.142;2023-05-21T09:05:13;7.50;;;6.55;;
66893;SDS011;53801;55.786;49.142;2023-05-21T09:10:48;8.45;;;6.30;;
66893;SDS011;53801;55.786;49.142;2023-05-21T09:13:15;6.22;;;4.20;;
66893;SDS011;53801;55.786;49.142;2023-05-21T09:15:41;5.82;;;5.32;;
66893;SDS011;53801;55.786;49.142;2023-05-21T09:18:07;6.93;;;5.37;;
66893;SDS011;53801;55.786;49.142;2023-05-21T09:20:32;7.13;;;5.47;;
66893;SDS011;53801;55.786;49.142;2023-05-21T09:23:01;5.10;;;4.55;;
66893;SDS011;53801;55.786;49.142;2023-05-21T09:25:26;33.25;;;7.68;;
66893;SDS011;53801;55.786;49.142;2023-05-21T09:27:53;10.02;;;6.30;;
66893;SDS011;53801;55.786;49.142;2023-05-21T09:30:19;7.57;;;6.05;;
66893;SDS011;53801;55.786;49.142;2023-05-21T09:32:45;9.00;;;6.47;;
66893;SDS011;53801;55.786;49.142;2023-05-21T09:35:16;6.75;;;6.00;;
66893;SDS011;53801;55.786;49.142;2023-05-21T09:37:42;7.73;;;6.97;;
66893;SDS011;53801;55.786;49.142;2023-05-21T09:40:12;7.85;;;6.13;;
66893;SDS011;53801;55.786;49.142;2023-05-21T09:42:39;8.80;;;6.35;;
66893;SDS011;53801;55.786;49.142;2023-05-21T09:45:06;7.82;;;5.72;;
66893;SDS011;53801;55.786;49.142;2023-05-21T09:47:31;10.15;;;6.00;;
66893;SDS011;53801;55.786;49.142;2023-05-21T09:49:57;8.87;;;6.97;;
66893;SDS011;53801;55.786;49.142;2023-05-21T09:52:23;7.65;;;6.00;;
66893;SDS011;53801;55.786;49.142;2023-05-21T09:54:52;7.05;;;5.32;;
66893;SDS011;53801;55.786;49.142;2023-05-21T09:57:27;8.05;;;5.70;;
66893;SDS011;53801;55.786;49.142;2023-05-21T09:59:56;8.32;;;5.57;;
66893;SDS011;53801;55.786;49.142;2023-05-21T10:02:22;11.48;;;5.30;;
66893;SDS011;53801;55.786;49.142;2023-05-21T10:04:49;8.10;;;5.20;;
66893;SDS011;53801;55.786;49.142;2023-05-21T10:07:18;8.27;;;5.32;;
66893;SDS011;53801;55.786;49.142;2023-05-21T10:12:45;7.95;;;3.45;;
66893;SDS011;53801;55.786;49.142;2023-05-21T10:15:14;6.03;;;4.32;;
66893;SDS011;53801;55.786;49.142;2023-05-21T10:17:41;8.27;;;4.70;;
66893;SDS011;53801;55.786;49.142;2023-05-21T10:20:07;5.63;;;3.80;;
66893;SDS011;53801;55.786;49.142;2023-05-21T10:27:59;8.63;;;3.42;;
66893;SDS011;53801;55.786;49.142;2023-05-21T10:30:25;8.65;;;3.28;;
66893;SDS011;53801;55.786;49.142;2023-05-21T10:32:50;6.40;;;3.67;;
66893;SDS011;53801;55.786;49.142;2023-05-21T10:35:19;12.93;;;3.00;;
66893;SDS011;53801;55.786;49.142;2023-05-21T10:37:44;6.00;;;2.88;;
66893;SDS011;53801;55.786;49.142;2023-05-21T10:40:10;5.22;;;2.97;;
66893;SDS011;53801;55.786;49.142;2023-05-21T10:45:08;8.20;;;3.00;;
66893;SDS011;53801;55.786;49.142;2023-05-21T10:50:13;6.50;;;3.00;;
66893;SDS011;53801;55.786;49.142;2023-05-21T11:00:25;7.90;;;2.88;;
66893;SDS011;53801;55.786;49.142;2023-05-21T11:02:51;4.60;;;2.30;;
66893;SDS011;53801;55.786;49.142;2023-05-21T11:08:01;5.43;;;2.70;;
66893;SDS011;53801;55.786;49.142;2023-05-21T11:10:37;5.95;;;2.75;;
66893;SDS011;53801;55.786;49.142;2023-05-21T11:13:21;7.70;;;2.50;;
66893;SDS011;53801;55.786;49.142;2023-05-21T11:21:16;4.30;;;2.55;;
66893;SDS011;53801;55.786;49.142;2023-05-21T11:23:55;5.18;;;2.40;;
66893;SDS011;53801;55.786;49.142;2023-05-21T11:26:21;4.63;;;2.38;;
66893;SDS011;53801;55.786;49.142;2023-05-21T11:31:30;4.20;;;2.10;;
66893;SDS011;53801;55.786;49.142;2023-05-21T11:36:51;4.82;;;2.55;;
66893;SDS011;53801;55.786;49.142;2023-05-21T11:39:38;3.72;;;2.42;;
66893;SDS011;53801;55.786;49.142;2023-05-21T11:42:05;7.28;;;2.75;;
66893;SDS011;53801;55.786;49.142;2023-05-21T11:47:05;7.60;;;2.30;;
66893;SDS011;53801;55.786;49.142;2023-05-21T11:49:31;4.25;;;2.53;;
66893;SDS011;53801;55.786;49.142;2023-05-21T11:54:45;9.27;;;2.40;;
66893;SDS011;53801;55.786;49.142;2023-05-21T11:57:22;5.47;;;2.78;;
66893;SDS011;53801;55.786;49.142;2023-05-21T11:59:51;5.45;;;2.42;;
66893;SDS011;53801;55.786;49.142;2023-05-21T12:02:19;7.47;;;2.50;;
66893;SDS011;53801;55.786;49.142;2023-05-21T12:04:48;5.25;;;2.30;;
66893;SDS011;53801;55.786;49.142;2023-05-21T12:07:18;4.13;;;2.47;;
66893;SDS011;53801;55.786;49.142;2023-05-21T12:09:44;6.03;;;2.53;;
66893;SDS011;53801;55.786;49.142;2023-05-21T12:12:11;8.23;;;2.28;;
66893;SDS011;53801;55.786;49.142;2023-05-21T12:14:38;9.98;;;2.28;;
66893;SDS011;53801;55.786;49.142;2023-05-21T12:17:04;8.57;;;2.30;;
66893;SDS011;53801;55.786;49.142;2023-05-21T12:19:35;6.55;;;1.83;;
66893;SDS011;53801;55.786;49.142;2023-05-21T12:22:01;5.55;;;2.08;;
66893;SDS011;53801;55.786;49.142;2023-05-21T12:24:27;5.20;;;2.05;;
66893;SDS011;53801;55.786;49.142;2023-05-21T12:26:52;6.67;;;2.00;;
66893;SDS011;53801;55.786;49.142;2023-05-21T12:29:22;5.20;;;2.20;;
66893;SDS011;53801;55.786;49.142;2023-05-21T12:31:48;5.00;;;2.50;;
66893;SDS011;53801;55.786;49.142;2023-05-21T12:36:49;5.32;;;2.20;;
66893;SDS011;53801;55.786;49.142;2023-05-21T12:39:15;5.18;;;2.08;;
66893;SDS011;53801;55.786;49.142;2023-05-21T12:41:41;4.60;;;1.97;;
66893;SDS011;53801;55.786;49.142;2023-05-21T12:44:16;10.68;;;2.65;;
66893;SDS011;53801;55.786;49.142;2023-05-21T12:46:41;5.93;;;1.88;;
66893;SDS011;53801;55.786;49.142;2023-05-21T12:49:29;3.15;;;2.10;;
66893;SDS011;53801;55.786;49.142;2023-05-21T13:00:30;7.03;;;2.20;;
66893;SDS011;53801;55.786;49.142;2023-05-21T13:05:44;3.80;;;2.40;;
66893;SDS011;53801;55.786;49.142;2023-05-21T13:14:17;4.23;;;2.27;;
66893;SDS011;53801;55.786;49.142;2023-05-21T13:55:07;6.05;;;2.53;;
66893;SDS011;53801;55.786;49.142;2023-05-21T14:12:31;4.47;;;2.33;;
66893;SDS011;53801;55.786;49.142;2023-05-21T14:14:57;6.72;;;2.58;;
66893;SDS011;53801;55.786;49.142;2023-05-21T14:17:23;3.92;;;2.03;;
66893;SDS011;53801;55.786;49.142;2023-05-21T14:46:23;6.22;;;1.98;;
66893;SDS011;53801;55.786;49.142;2023-05-21T14:48:51;4.10;;;2.33;;
66893;SDS011;53801;55.786;49.142;2023-05-21T15:15:23;5.90;;;2.30;;
66893;SDS011;53801;55.786;49.142;2023-05-21T15:17:49;10.60;;;2.40;;
66893;SDS011;53801;55.786;49.142;2023-05-21T15:20:16;4.53;;;2.10;;
66893;SDS011;53801;55.786;49.142;2023-05-21T15:22:42;8.57;;;2.28;;
66893;SDS011;53801;55.786;49.142;2023-05-21T15:25:09;5.68;;;2.35;;
66893;SDS011;53801;55.786;49.142;2023-05-21T15:27:35;5.07;;;2.30;;
66893;SDS011;53801;55.786;49.142;2023-05-21T15:35:43;6.88;;;2.42;;
66893;SDS011;53801;55.786;49.142;2023-05-21T15:40:42;5.75;;;2.20;;
66893;SDS011;53801;55.786;49.142;2023-05-21T15:43:08;5.40;;;1.80;;
66893;SDS011;53801;55.786;49.142;2023-05-21T15:45:33;6.95;;;1.92;;
66893;SDS011;53801;55.786;49.142;2023-05-21T15:48:03;4.97;;;1.90;;
66893;SDS011;53801;55.786;49.142;2023-05-21T15:50:29;15.55;;;2.67;;
66893;SDS011;53801;55.786;49.142;2023-05-21T15:52:54;11.23;;;2.50;;
66893;SDS011;53801;55.786;49.142;2023-05-21T15:55:20;7.00;;;2.80;;
66893;SDS011;53801;55.786;49.142;2023-05-21T15:57:45;7.65;;;2.53;;
66893;SDS011;53801;55.786;49.142;2023-05-21T16:00:11;5.57;;;2.20;;
66893;SDS011;53801;55.786;49.142;2023-05-21T16:02:39;4.60;;;2.22;;
66893;SDS011;53801;55.786;49.142;2023-05-21T16:05:37;5.83;;;2.27;;
66893;SDS011;53801;55.786;49.142;2023-05-21T16:08:02;7.53;;;2.40;;
66893;SDS011;53801;55.786;49.142;2023-05-21T16:21:46;7.82;;;2.40;;
66893;SDS011;53801;55.786;49.142;2023-05-21T16:24:11;4.07;;;2.20;;
66893;SDS011;53801;55.786;49.142;2023-05-21T16:32:29;11.20;;;3.10;;
66893;SDS011;53801;55.786;49.142;2023-05-21T16:34:54;8.90;;;2.60;;
66893;SDS011;53801;55.786;49.142;2023-05-21T16:40:08;9.63;;;2.92;;
66893;SDS011;53801;55.786;49.142;2023-05-21T16:42:34;9.55;;;2.50;;
66893;SDS011;53801;55.786;49.142;2023-05-21T16:44:59;8.83;;;2.90;;
66893;SDS011;53801;55.786;49.142;2023-05-21T17:02:46;10.95;;;3.60;;
66893;SDS011;53801;55.786;49.142;2023-05-21T17:14:06;9.60;;;4.03;;
66893;SDS011;53801;55.786;49.142;2023-05-21T17:30:44;8.52;;;4.05;;
66893;SDS011;53801;55.786;49.142;2023-05-21T17:38:47;11.90;;;4.37;;
66893;SDS011;53801;55.786;49.142;2023-05-21T18:04:39;18.48;;;5.18;;
66893;SDS011;53801;55.786;49.142;2023-05-21T18:15:01;9.82;;;5.25;;
66893;SDS011;53801;55.786;49.142;2023-05-21T18:26:38;14.07;;;5.40;;
66893;SDS011;53801;55.786;49.142;2023-05-21T18:29:06;12.65;;;5.38;;
66893;SDS011;53801;55.786;49.142;2023-05-21T18:43:29;18.20;;;7.47;;
66893;SDS011;53801;55.786;49.142;2023-05-21T18:51:32;21.40;;;9.82;;
66893;SDS011;53801;55.786;49.142;2023-05-21T18:54:05;25.90;;;10.63;;
66893;SDS011;53801;55.786;49.142;2023-05-21T19:45:37;28.48;;;13.80;;
66893;SDS011;53801;55.786;49.142;2023-05-21T20:05:27;25.15;;;11.70;;
66893;SDS011;53801;55.786;49.142;2023-05-21T20:07:52;23.97;;;11.93;;
66893;SDS011;53801;55.786;49.142;2023-05-21T20:10:18;26.33;;;12.15;;
66893;SDS011;53801;55.786;49.142;2023-05-21T20:18:15;25.83;;;10.93;;
66893;SDS011;53801;55.786;49.142;2023-05-21T21:02:18;13.50;;;5.70;;
66893;SDS011;53801;55.786;49.142;2023-05-21T21:07:37;16.98;;;6.47;;
66893;SDS011;53801;55.786;49.142;2023-05-21T21:28:10;14.15;;;6.05;;
66893;SDS011;53801;55.786;49.142;2023-05-21T21:30:36;14.73;;;6.10;;
66893;SDS011;53801;55.786;49.142;2023-05-21T21:33:05;19.52;;;6.25;;
66893;SDS011;53801;55.786;49.142;2023-05-21T22:01:42;19.65;;;7.93;;
66893;SDS011;53801;55.786;49.142;2023-05-21T22:04:17;17.02;;;8.60;;
66893;SDS011;53801;55.786;49.142;2023-05-21T22:07:03;16.05;;;8.43;;
66893;SDS011;53801;55.786;49.142;2023-05-21T22:09:29;19.10;;;7.67;;
66893;SDS011;53801;55.786;49.142;2023-05-21T22:11:54;19.07;;;8.37;;
66893;SDS011;53801;55.786;49.142;2023-05-21T22:14:20;22.08;;;8.82;;